createdAt,value
2023-01-29T00:00:19.964Z,3.72
2023-01-29T00:02:48.361Z,4.30
2023-01-29T00:05:27.368Z,3.78
2023-01-29T00:07:56.597Z,4.07
2023-01-29T00:10:27.468Z,3.78
2023-01-29T00:12:56.160Z,3.50
2023-01-29T00:15:24.979Z,3.60
2023-01-29T00:17:53.367Z,3.88
2023-01-29T00:20:21.865Z,3.58
2023-01-29T00:22:50.181Z,3.33
2023-01-29T00:25:18.721Z,3.80
2023-01-29T00:27:48.468Z,3.47
2023-01-29T00:30:20.083Z,4.25
2023-01-29T00:32:48.853Z,3.78
2023-01-29T00:35:17.378Z,3.72
2023-01-29T00:37:45.832Z,3.35
2023-01-29T00:40:15.129Z,3.75
2023-01-29T00:43:04.669Z,3.30
2023-01-29T00:45:33.111Z,3.35
2023-01-29T00:48:01.937Z,3.80
2023-01-29T00:50:30.295Z,3.03
2023-01-29T00:52:58.792Z,3.42
2023-01-29T00:55:27.091Z,3.40
2023-01-29T00:57:56.978Z,3.85
2023-01-29T01:00:26.375Z,3.08
2023-01-29T01:03:08.560Z,3.17
2023-01-29T01:05:37.156Z,3.55
2023-01-29T01:08:27.963Z,3.45
2023-01-29T01:11:04.323Z,3.50
2023-01-29T01:13:35.306Z,2.92
2023-01-29T01:16:03.719Z,3.35
2023-01-29T01:18:32.704Z,3.05
2023-01-29T01:21:01.104Z,3.05
2023-01-29T01:23:29.439Z,3.00
2023-01-29T01:25:57.749Z,3.17
2023-01-29T01:28:26.232Z,3.33
2023-01-29T01:30:56.357Z,2.90
2023-01-29T01:33:25.298Z,2.88
2023-01-29T01:35:53.623Z,3.55
2023-01-29T01:38:21.934Z,3.47
2023-01-29T01:40:50.278Z,3.45
2023-01-29T01:43:18.587Z,3.42
2023-01-29T01:45:47.003Z,3.60
2023-01-29T01:48:21.060Z,3.95
2023-01-29T01:50:54.216Z,3.33
2023-01-29T01:53:26.913Z,3.55
2023-01-29T01:56:00.186Z,3.50
2023-01-29T01:58:33.267Z,3.40
2023-01-29T02:01:02.537Z,3.53
2023-01-29T02:03:51.901Z,3.42
2023-01-29T02:06:37.668Z,3.60
2023-01-29T02:09:28.627Z,3.00
2023-01-29T02:11:57.525Z,3.25
2023-01-29T02:14:26.367Z,3.33
2023-01-29T02:16:55.144Z,3.70
2023-01-29T02:19:40.213Z,3.83
2023-01-29T02:22:28.474Z,4.70
2023-01-29T02:25:23.500Z,4.15
2023-01-29T02:28:22.168Z,4.18
2023-01-29T02:31:00.332Z,4.15
2023-01-29T02:33:41.515Z,3.88
2023-01-29T02:36:21.032Z,4.30
2023-01-29T02:38:58.940Z,3.72
2023-01-29T02:41:30.367Z,3.92
2023-01-29T02:44:06.121Z,4.47
2023-01-29T02:46:39.618Z,4.45
2023-01-29T02:51:46.524Z,4.45
2023-01-29T02:56:52.551Z,3.83
2023-01-29T02:59:26.939Z,3.10
2023-01-29T03:01:59.376Z,2.90
2023-01-29T03:04:31.324Z,3.63
2023-01-29T03:07:04.492Z,4.25
2023-01-29T03:09:38.056Z,4.03
2023-01-29T03:15:10.102Z,3.15
2023-01-29T03:17:44.395Z,3.67
2023-01-29T03:20:19.055Z,3.10
2023-01-29T03:22:53.889Z,3.30
2023-01-29T03:25:41.536Z,3.22
2023-01-29T03:28:31.280Z,2.92
2023-01-29T03:31:22.096Z,3.08
2023-01-29T03:33:53.473Z,3.20
2023-01-29T03:36:28.337Z,3.05
2023-01-29T03:38:56.704Z,3.28
2023-01-29T03:41:30.164Z,4.07
2023-01-29T03:46:37.894Z,3.00
2023-01-29T03:49:13.558Z,4.03
2023-01-29T03:51:51.635Z,4.00
2023-01-29T03:54:26.613Z,4.15
2023-01-29T03:57:01.697Z,4.60
2023-01-29T03:59:38.267Z,5.30
2023-01-29T04:02:14.830Z,4.95
2023-01-29T04:04:46.623Z,5.22
2023-01-29T04:07:19.125Z,4.28
2023-01-29T04:09:50.720Z,4.57
2023-01-29T04:12:23.342Z,4.72
2023-01-29T04:14:55.020Z,5.22
2023-01-29T04:17:30.085Z,4.28
2023-01-29T04:19:58.505Z,4.47
2023-01-29T04:22:33.024Z,4.10
2023-01-29T04:25:08.637Z,4.43
2023-01-29T04:27:47.170Z,4.22
2023-01-29T04:30:25.384Z,4.28
2023-01-29T04:33:04.900Z,4.45
2023-01-29T04:35:38.021Z,4.70
2023-01-29T04:38:14.180Z,5.07
2023-01-29T04:40:52.319Z,5.28
2023-01-29T04:43:28.664Z,5.10
2023-01-29T04:46:12.081Z,5.10
2023-01-29T04:48:55.270Z,6.63
2023-01-29T04:51:31.514Z,5.85
2023-01-29T04:54:11.120Z,6.32
2023-01-29T04:56:49.893Z,6.10
2023-01-29T04:59:24.567Z,5.13
2023-01-29T05:01:53.479Z,5.00
2023-01-29T05:04:24.255Z,4.60
2023-01-29T05:06:53.922Z,4.75
2023-01-29T05:09:24.126Z,4.65
2023-01-29T05:11:52.975Z,4.43
2023-01-29T05:14:25.304Z,4.88
2023-01-29T05:16:57.910Z,5.35
2023-01-29T05:19:27.908Z,4.47
2023-01-29T05:21:56.781Z,4.07
2023-01-29T05:24:26.602Z,4.60
2023-01-29T05:27:13.848Z,4.88
2023-01-29T05:29:46.430Z,4.28
2023-01-29T05:32:15.542Z,3.73
2023-01-29T05:34:45.253Z,4.70
2023-01-29T05:37:13.612Z,4.18
2023-01-29T05:39:41.995Z,4.55
2023-01-29T05:42:10.362Z,4.20
2023-01-29T05:44:38.707Z,7.63
2023-01-29T05:47:07.136Z,5.43
2023-01-29T05:49:36.750Z,5.70
2023-01-29T05:52:08.202Z,5.13
2023-01-29T05:54:36.617Z,4.22
2023-01-29T05:57:05.474Z,4.43
2023-01-29T05:59:33.782Z,5.13
2023-01-29T06:02:02.199Z,4.53
2023-01-29T06:04:30.633Z,4.18
2023-01-29T06:06:58.970Z,4.68
2023-01-29T06:09:28.832Z,4.50
2023-01-29T06:11:57.194Z,4.38
2023-01-29T06:14:25.576Z,4.80
2023-01-29T06:16:53.900Z,4.05
2023-01-29T06:19:22.298Z,5.00
2023-01-29T06:21:50.604Z,5.38
2023-01-29T06:24:18.995Z,4.25
2023-01-29T06:26:48.811Z,4.60
2023-01-29T06:29:17.427Z,4.88
2023-01-29T06:31:45.950Z,4.95
2023-01-29T06:34:14.415Z,5.00
2023-01-29T06:36:43.244Z,4.10
2023-01-29T06:39:12.816Z,4.32
2023-01-29T06:41:41.109Z,4.00
2023-01-29T06:44:10.953Z,4.18
2023-01-29T06:46:39.559Z,4.25
2023-01-29T06:49:07.906Z,4.57
2023-01-29T06:51:36.223Z,5.40
2023-01-29T06:54:04.938Z,4.45
2023-01-29T06:56:33.268Z,4.18
2023-01-29T06:59:01.730Z,4.93
2023-01-29T07:01:35.988Z,4.70
2023-01-29T07:04:05.547Z,4.40
2023-01-29T07:06:34.069Z,4.50
2023-01-29T07:09:02.587Z,4.70
2023-01-29T07:11:31.166Z,4.90
2023-01-29T07:13:59.961Z,4.82
2023-01-29T07:16:28.334Z,4.38
2023-01-29T07:18:58.137Z,2.95
2023-01-29T07:21:26.684Z,3.28
2023-01-29T07:23:55.097Z,4.13
2023-01-29T07:26:23.395Z,4.10
2023-01-29T07:28:51.714Z,4.88
2023-01-29T07:31:20.210Z,3.80
2023-01-29T07:33:48.836Z,4.18
2023-01-29T07:36:18.511Z,4.32
2023-01-29T07:38:50.938Z,4.72
2023-01-29T07:41:19.289Z,4.40
2023-01-29T07:43:47.678Z,4.78
2023-01-29T07:46:16.162Z,4.07
2023-01-29T07:48:44.449Z,4.80
2023-01-29T07:51:12.819Z,4.40
2023-01-29T07:53:44.548Z,4.30
2023-01-29T07:56:13.021Z,3.08
2023-01-29T07:58:41.411Z,4.47
2023-01-29T08:01:10.143Z,4.00
2023-01-29T08:03:38.579Z,4.90
2023-01-29T08:06:07.595Z,4.40
2023-01-29T08:08:36.090Z,3.67
2023-01-29T08:11:06.717Z,3.60
2023-01-29T08:13:35.464Z,4.22
2023-01-29T08:16:04.511Z,3.35
2023-01-29T08:18:32.965Z,3.88
2023-01-29T08:21:02.293Z,3.47
2023-01-29T08:23:30.766Z,2.88
2023-01-29T08:25:59.221Z,2.30
2023-01-29T08:28:29.059Z,2.90
2023-01-29T08:30:57.641Z,3.05
2023-01-29T08:33:38.372Z,3.10
2023-01-29T08:36:08.014Z,2.72
2023-01-29T08:38:36.320Z,2.60
2023-01-29T08:41:04.697Z,2.58
2023-01-29T08:43:35.460Z,3.03
2023-01-29T08:46:04.999Z,2.70
2023-01-29T08:48:33.719Z,3.00
2023-01-29T08:51:04.697Z,2.83
2023-01-29T08:53:33.392Z,2.53
2023-01-29T08:56:01.763Z,2.63
2023-01-29T08:58:30.154Z,2.90
2023-01-29T09:01:07.290Z,2.80
2023-01-29T09:03:35.548Z,3.85
2023-01-29T09:06:03.898Z,3.75
2023-01-29T09:08:32.347Z,4.38
2023-01-29T09:11:01.197Z,5.30
2023-01-29T09:13:29.724Z,5.47
2023-01-29T09:16:02.379Z,4.20
2023-01-29T09:18:31.636Z,5.20
2023-01-29T09:21:00.136Z,5.50
2023-01-29T09:23:28.495Z,5.07
2023-01-29T09:25:56.817Z,5.32
2023-01-29T09:28:25.379Z,4.32
2023-01-29T09:30:53.979Z,4.05
2023-01-29T09:33:24.837Z,3.60
2023-01-29T09:35:53.193Z,4.47
2023-01-29T09:38:21.572Z,4.45
2023-01-29T09:40:59.195Z,3.60
2023-01-29T09:43:41.237Z,5.70
2023-01-29T09:46:19.357Z,5.10
2023-01-29T09:48:55.020Z,5.03
2023-01-29T09:51:29.917Z,7.43
2023-01-29T09:54:05.511Z,6.93
2023-01-29T09:56:33.923Z,4.57
2023-01-29T09:59:02.724Z,4.25
2023-01-29T10:01:38.456Z,3.60
2023-01-29T10:04:28.538Z,3.20
2023-01-29T10:07:23.665Z,3.30
2023-01-29T10:10:33.129Z,2.90
2023-01-29T10:13:09.109Z,3.00
2023-01-29T10:15:46.465Z,3.05
2023-01-29T10:18:50.517Z,3.17
2023-01-29T10:21:38.661Z,3.20
2023-01-29T10:24:22.704Z,3.20
2023-01-29T10:26:52.190Z,2.95
2023-01-29T10:29:22.949Z,3.33
2023-01-29T10:31:56.954Z,3.63
2023-01-29T10:34:32.970Z,3.47
2023-01-29T10:37:13.447Z,3.15
2023-01-29T10:39:41.716Z,3.50
2023-01-29T10:42:23.768Z,4.47
2023-01-29T10:45:04.266Z,3.58
2023-01-29T10:47:59.889Z,4.72
2023-01-29T10:50:40.713Z,3.83
2023-01-29T10:53:24.288Z,3.75
2023-01-29T10:56:02.479Z,3.50
2023-01-29T10:58:41.374Z,3.85
2023-01-29T11:01:10.833Z,4.18
2023-01-29T11:03:39.293Z,3.97
2023-01-29T11:06:16.430Z,3.92
2023-01-29T11:08:54.210Z,4.07
2023-01-29T11:11:26.165Z,4.00
2023-01-29T11:13:58.776Z,4.65
2023-01-29T11:16:28.450Z,4.25
2023-01-29T11:18:59.699Z,4.10
2023-01-29T11:21:29.887Z,4.45
2023-01-29T11:24:17.088Z,3.95
2023-01-29T11:26:47.770Z,4.20
2023-01-29T11:29:44.420Z,4.00
2023-01-29T11:32:17.628Z,3.78
2023-01-29T11:35:02.669Z,4.40
2023-01-29T11:37:36.371Z,4.03
2023-01-29T11:42:57.257Z,4.65
2023-01-29T11:45:30.103Z,4.35
2023-01-29T11:47:58.697Z,4.55
2023-01-29T11:50:29.508Z,4.30
2023-01-29T11:52:59.881Z,4.20
2023-01-29T11:55:41.138Z,4.28
2023-01-29T11:58:21.129Z,4.40
2023-01-29T12:00:54.451Z,4.18
2023-01-29T12:03:32.108Z,4.25
2023-01-29T12:06:02.830Z,3.53
2023-01-29T12:08:37.856Z,4.22
2023-01-29T12:11:14.381Z,3.75
2023-01-29T12:13:44.522Z,3.60
2023-01-29T12:16:22.923Z,3.90
2023-01-29T12:18:56.569Z,4.15
2023-01-29T12:21:34.917Z,4.55
2023-01-29T12:24:09.513Z,4.55
2023-01-29T12:26:46.092Z,4.68
2023-01-29T12:29:33.466Z,4.60
2023-01-29T12:32:13.774Z,4.38
2023-01-29T12:34:47.768Z,5.50
2023-01-29T12:37:23.755Z,4.55
